sensor_id;sensor_type;location;lat;lon;timestamp;P1;durP1;ratioP1;P2;durP2;ratioP2
40533;SDS011;26233;51.894;10.192;2022-11-04T00:02:15;3.10;;;2.38;;
40533;SDS011;26233;51.894;10.192;2022-11-04T00:04:45;4.78;;;2.50;;
40533;SDS011;26233;51.894;10.192;2022-11-04T00:07:13;2.75;;;2.55;;
40533;SDS011;26233;51.894;10.192;2022-11-04T00:09:58;3.08;;;2.40;;
40533;SDS011;26233;51.894;10.192;2022-11-04T00:12:25;2.60;;;2.40;;
40533;SDS011;26233;51.894;10.192;2022-11-04T00:14:51;3.15;;;2.78;;
40533;SDS011;26233;51.894;10.192;2022-11-04T00:17:39;2.90;;;2.60;;
40533;SDS011;26233;51.894;10.192;2022-11-04T00:20:05;3.00;;;2.47;;
40533;SDS011;26233;51.894;10.192;2022-11-04T00:22:52;2.97;;;2.50;;
40533;SDS011;26233;51.894;10.192;2022-11-04T00:25:37;3.83;;;2.33;;
40533;SDS011;26233;51.894;10.192;2022-11-04T00:28:21;2.50;;;2.10;;
40533;SDS011;26233;51.894;10.192;2022-11-04T00:31:07;3.90;;;2.40;;
40533;SDS011;26233;51.894;10.192;2022-11-04T00:33:53;2.80;;;2.42;;
40533;SDS011;26233;51.894;10.192;2022-11-04T00:36:22;3.22;;;2.60;;
40533;SDS011;26233;51.894;10.192;2022-11-04T00:38:52;3.60;;;2.85;;
40533;SDS011;26233;51.894;10.192;2022-11-04T00:41:19;2.78;;;2.58;;
40533;SDS011;26233;51.894;10.192;2022-11-04T00:43:54;2.65;;;2.45;;
40533;SDS011;26233;51.894;10.192;2022-11-04T00:46:23;3.08;;;2.78;;
40533;SDS011;26233;51.894;10.192;2022-11-04T00:48:54;3.78;;;2.85;;
40533;SDS011;26233;51.894;10.192;2022-11-04T00:51:21;3.40;;;2.45;;
40533;SDS011;26233;51.894;10.192;2022-11-04T00:53:53;3.03;;;2.50;;
40533;SDS011;26233;51.894;10.192;2022-11-04T00:56:22;2.40;;;2.20;;
40533;SDS011;26233;51.894;10.192;2022-11-04T00:58:52;2.60;;;2.40;;
40533;SDS011;26233;51.894;10.192;2022-11-04T01:01:19;2.80;;;2.50;;
40533;SDS011;26233;51.894;10.192;2022-11-04T01:03:47;2.67;;;2.47;;
40533;SDS011;26233;51.894;10.192;2022-11-04T01:06:18;2.92;;;2.72;;
40533;SDS011;26233;51.894;10.192;2022-11-04T01:08:47;3.17;;;2.50;;
40533;SDS011;26233;51.894;10.192;2022-11-04T01:11:16;3.08;;;2.40;;
40533;SDS011;26233;51.894;10.192;2022-11-04T01:13:43;2.30;;;2.10;;
40533;SDS011;26233;51.894;10.192;2022-11-04T01:16:10;2.58;;;2.38;;
40533;SDS011;26233;51.894;10.192;2022-11-04T01:18:38;2.47;;;2.28;;
40533;SDS011;26233;51.894;10.192;2022-11-04T01:21:07;2.72;;;2.40;;
40533;SDS011;26233;51.894;10.192;2022-11-04T01:23:38;2.80;;;2.33;;
40533;SDS011;26233;51.894;10.192;2022-11-04T01:26:06;2.63;;;2.42;;
40533;SDS011;26233;51.894;10.192;2022-11-04T01:28:36;2.55;;;2.35;;
40533;SDS011;26233;51.894;10.192;2022-11-04T01:31:04;2.58;;;2.38;;
40533;SDS011;26233;51.894;10.192;2022-11-04T01:33:32;2.40;;;2.20;;
40533;SDS011;26233;51.894;10.192;2022-11-04T01:35:59;2.92;;;2.63;;
40533;SDS011;26233;51.894;10.192;2022-11-04T01:38:27;3.00;;;2.70;;
40533;SDS011;26233;51.894;10.192;2022-11-04T01:40:54;2.78;;;2.47;;
40533;SDS011;26233;51.894;10.192;2022-11-04T01:43:22;2.55;;;2.35;;
40533;SDS011;26233;51.894;10.192;2022-11-04T01:46:07;2.97;;;2.50;;
40533;SDS011;26233;51.894;10.192;2022-11-04T01:48:38;2.70;;;2.50;;
40533;SDS011;26233;51.894;10.192;2022-11-04T01:51:05;2.55;;;2.35;;
40533;SDS011;26233;51.894;10.192;2022-11-04T01:53:33;2.70;;;2.50;;
40533;SDS011;26233;51.894;10.192;2022-11-04T01:56:04;2.75;;;2.55;;
40533;SDS011;26233;51.894;10.192;2022-11-04T01:58:37;3.30;;;3.00;;
40533;SDS011;26233;51.894;10.192;2022-11-04T02:01:08;3.13;;;2.83;;
40533;SDS011;26233;51.894;10.192;2022-11-04T02:03:39;3.40;;;3.03;;
40533;SDS011;26233;51.894;10.192;2022-11-04T02:06:12;3.08;;;2.80;;
40533;SDS011;26233;51.894;10.192;2022-11-04T02:08:40;3.20;;;2.92;;
40533;SDS011;26233;51.894;10.192;2022-11-04T02:11:08;3.58;;;3.28;;
40533;SDS011;26233;51.894;10.192;2022-11-04T02:13:35;3.63;;;3.33;;
40533;SDS011;26233;51.894;10.192;2022-11-04T02:16:03;3.55;;;2.70;;
40533;SDS011;26233;51.894;10.192;2022-11-04T02:18:44;3.20;;;2.90;;
40533;SDS011;26233;51.894;10.192;2022-11-04T02:21:28;3.60;;;2.80;;
40533;SDS011;26233;51.894;10.192;2022-11-04T02:24:41;2.70;;;2.50;;
40533;SDS011;26233;51.894;10.192;2022-11-04T02:27:28;3.97;;;2.40;;
40533;SDS011;26233;51.894;10.192;2022-11-04T02:30:06;2.75;;;2.53;;
40533;SDS011;26233;51.894;10.192;2022-11-04T02:32:38;2.72;;;2.53;;
40533;SDS011;26233;51.894;10.192;2022-11-04T02:35:31;2.80;;;2.38;;
40533;SDS011;26233;51.894;10.192;2022-11-04T02:38:11;2.50;;;2.30;;
40533;SDS011;26233;51.894;10.192;2022-11-04T02:40:48;3.67;;;3.17;;
40533;SDS011;26233;51.894;10.192;2022-11-04T02:43:28;3.25;;;2.70;;
40533;SDS011;26233;51.894;10.192;2022-11-04T02:46:05;3.00;;;2.67;;
40533;SDS011;26233;51.894;10.192;2022-11-04T02:48:43;2.70;;;2.47;;
40533;SDS011;26233;51.894;10.192;2022-11-04T02:51:15;2.72;;;2.22;;
40533;SDS011;26233;51.894;10.192;2022-11-04T02:53:46;2.53;;;2.33;;
40533;SDS011;26233;51.894;10.192;2022-11-04T02:56:21;3.00;;;2.53;;
40533;SDS011;26233;51.894;10.192;2022-11-04T02:58:51;2.40;;;2.20;;
40533;SDS011;26233;51.894;10.192;2022-11-04T03:01:23;2.47;;;2.28;;
40533;SDS011;26233;51.894;10.192;2022-11-04T03:03:55;2.50;;;2.30;;
40533;SDS011;26233;51.894;10.192;2022-11-04T03:06:29;2.55;;;2.35;;
40533;SDS011;26233;51.894;10.192;2022-11-04T03:08:58;3.03;;;2.40;;
40533;SDS011;26233;51.894;10.192;2022-11-04T03:11:28;2.20;;;2.00;;
40533;SDS011;26233;51.894;10.192;2022-11-04T03:13:58;2.83;;;2.28;;
40533;SDS011;26233;51.894;10.192;2022-11-04T03:16:32;2.30;;;2.10;;
40533;SDS011;26233;51.894;10.192;2022-11-04T03:19:06;2.53;;;2.20;;
40533;SDS011;26233;51.894;10.192;2022-11-04T03:21:43;2.58;;;2.33;;
40533;SDS011;26233;51.894;10.192;2022-11-04T03:24:16;2.88;;;2.58;;
40533;SDS011;26233;51.894;10.192;2022-11-04T03:26:43;3.00;;;2.70;;
40533;SDS011;26233;51.894;10.192;2022-11-04T03:29:20;2.80;;;2.60;;
40533;SDS011;26233;51.894;10.192;2022-11-04T03:31:56;2.67;;;2.47;;
40533;SDS011;26233;51.894;10.192;2022-11-04T03:34:30;2.30;;;2.10;;
40533;SDS011;26233;51.894;10.192;2022-11-04T03:36:58;2.97;;;2.42;;
40533;SDS011;26233;51.894;10.192;2022-11-04T03:39:26;2.50;;;2.30;;
40533;SDS011;26233;51.894;10.192;2022-11-04T03:41:54;2.40;;;2.20;;
40533;SDS011;26233;51.894;10.192;2022-11-04T03:44:24;1.98;;;1.88;;
40533;SDS011;26233;51.894;10.192;2022-11-04T03:46:52;2.67;;;1.58;;
40533;SDS011;26233;51.894;10.192;2022-11-04T03:49:21;1.55;;;1.45;;
40533;SDS011;26233;51.894;10.192;2022-11-04T03:51:49;1.73;;;1.60;;
40533;SDS011;26233;51.894;10.192;2022-11-04T03:54:17;1.55;;;1.45;;
40533;SDS011;26233;51.894;10.192;2022-11-04T03:56:49;1.50;;;1.40;;
40533;SDS011;26233;51.894;10.192;2022-11-04T04:02:38;1.45;;;1.35;;
40533;SDS011;26233;51.894;10.192;2022-11-04T04:05:19;1.52;;;1.42;;
40533;SDS011;26233;51.894;10.192;2022-11-04T04:07:51;1.48;;;1.38;;
40533;SDS011;26233;51.894;10.192;2022-11-04T04:10:27;1.58;;;1.30;;
40533;SDS011;26233;51.894;10.192;2022-11-04T04:13:08;1.30;;;1.20;;
40533;SDS011;26233;51.894;10.192;2022-11-04T04:15:46;1.05;;;1.05;;
40533;SDS011;26233;51.894;10.192;2022-11-04T04:18:19;1.20;;;1.10;;
40533;SDS011;26233;51.894;10.192;2022-11-04T04:20:54;1.30;;;1.20;;
40533;SDS011;26233;51.894;10.192;2022-11-04T04:23:27;1.00;;;0.95;;
40533;SDS011;26233;51.894;10.192;2022-11-04T04:26:14;1.20;;;1.10;;
40533;SDS011;26233;51.894;10.192;2022-11-04T04:29:02;0.98;;;0.98;;
40533;SDS011;26233;51.894;10.192;2022-11-04T04:31:32;0.98;;;0.93;;
40533;SDS011;26233;51.894;10.192;2022-11-04T04:34:16;1.20;;;1.10;;
40533;SDS011;26233;51.894;10.192;2022-11-04T04:36:49;1.10;;;1.00;;
40533;SDS011;26233;51.894;10.192;2022-11-04T04:39:25;1.10;;;1.00;;
40533;SDS011;26233;51.894;10.192;2022-11-04T04:42:16;1.00;;;0.90;;
40533;SDS011;26233;51.894;10.192;2022-11-04T04:45:02;0.80;;;0.80;;
40533;SDS011;26233;51.894;10.192;2022-11-04T04:47:34;0.93;;;0.82;;
40533;SDS011;26233;51.894;10.192;2022-11-04T04:50:08;0.82;;;0.82;;
40533;SDS011;26233;51.894;10.192;2022-11-04T04:52:37;0.70;;;0.70;;
40533;SDS011;26233;51.894;10.192;2022-11-04T04:55:07;0.80;;;0.80;;
40533;SDS011;26233;51.894;10.192;2022-11-04T04:57:35;0.90;;;0.90;;
40533;SDS011;26233;51.894;10.192;2022-11-04T05:00:07;0.82;;;0.80;;
40533;SDS011;26233;51.894;10.192;2022-11-04T05:02:38;0.90;;;0.90;;
40533;SDS011;26233;51.894;10.192;2022-11-04T05:05:05;0.70;;;0.70;;
40533;SDS011;26233;51.894;10.192;2022-11-04T05:07:34;1.00;;;0.90;;
40533;SDS011;26233;51.894;10.192;2022-11-04T05:10:02;0.77;;;0.77;;
40533;SDS011;26233;51.894;10.192;2022-11-04T05:12:30;0.98;;;0.77;;
40533;SDS011;26233;51.894;10.192;2022-11-04T05:15:11;0.77;;;0.77;;
40533;SDS011;26233;51.894;10.192;2022-11-04T05:17:38;1.00;;;0.90;;
40533;SDS011;26233;51.894;10.192;2022-11-04T05:20:06;0.85;;;0.70;;
40533;SDS011;26233;51.894;10.192;2022-11-04T05:22:35;1.33;;;1.00;;
40533;SDS011;26233;51.894;10.192;2022-11-04T05:25:09;0.88;;;0.73;;
40533;SDS011;26233;51.894;10.192;2022-11-04T05:27:36;0.80;;;0.80;;
40533;SDS011;26233;51.894;10.192;2022-11-04T05:30:03;0.80;;;0.80;;
40533;SDS011;26233;51.894;10.192;2022-11-04T05:32:31;0.80;;;0.80;;
40533;SDS011;26233;51.894;10.192;2022-11-04T05:35:01;0.82;;;0.82;;
40533;SDS011;26233;51.894;10.192;2022-11-04T05:37:31;0.80;;;0.80;;
40533;SDS011;26233;51.894;10.192;2022-11-04T05:39:58;0.98;;;0.95;;
40533;SDS011;26233;51.894;10.192;2022-11-04T05:42:25;0.90;;;0.90;;
40533;SDS011;26233;51.894;10.192;2022-11-04T05:44:53;1.00;;;0.90;;
40533;SDS011;26233;51.894;10.192;2022-11-04T05:47:20;0.85;;;0.85;;
40533;SDS011;26233;51.894;10.192;2022-11-04T05:49:47;0.80;;;0.80;;
40533;SDS011;26233;51.894;10.192;2022-11-04T05:52:14;0.80;;;0.80;;
40533;SDS011;26233;51.894;10.192;2022-11-04T05:54:43;0.80;;;0.80;;
40533;SDS011;26233;51.894;10.192;2022-11-04T05:57:10;1.00;;;1.00;;
40533;SDS011;26233;51.894;10.192;2022-11-04T05:59:37;0.98;;;0.70;;
40533;SDS011;26233;51.894;10.192;2022-11-04T06:02:04;1.00;;;0.82;;
40533;SDS011;26233;51.894;10.192;2022-11-04T06:04:34;0.82;;;0.82;;
40533;SDS011;26233;51.894;10.192;2022-11-04T06:07:03;1.60;;;1.00;;
40533;SDS011;26233;51.894;10.192;2022-11-04T06:09:31;1.08;;;0.70;;
40533;SDS011;26233;51.894;10.192;2022-11-04T06:12:06;0.93;;;0.90;;
40533;SDS011;26233;51.894;10.192;2022-11-04T06:14:36;1.20;;;0.95;;
40533;SDS011;26233;51.894;10.192;2022-11-04T06:17:03;0.80;;;0.80;;
40533;SDS011;26233;51.894;10.192;2022-11-04T06:19:30;1.10;;;1.00;;
40533;SDS011;26233;51.894;10.192;2022-11-04T06:21:57;1.25;;;1.10;;
40533;SDS011;26233;51.894;10.192;2022-11-04T06:24:28;1.17;;;1.08;;
40533;SDS011;26233;51.894;10.192;2022-11-04T06:26:55;1.15;;;1.05;;
40533;SDS011;26233;51.894;10.192;2022-11-04T06:29:23;1.25;;;1.10;;
40533;SDS011;26233;51.894;10.192;2022-11-04T06:31:50;1.20;;;1.10;;
40533;SDS011;26233;51.894;10.192;2022-11-04T06:34:17;1.30;;;1.20;;
40533;SDS011;26233;51.894;10.192;2022-11-04T06:36:44;1.30;;;1.05;;
40533;SDS011;26233;51.894;10.192;2022-11-04T06:39:11;1.88;;;0.98;;
40533;SDS011;26233;51.894;10.192;2022-11-04T06:41:38;1.15;;;1.10;;
40533;SDS011;26233;51.894;10.192;2022-11-04T06:44:05;1.13;;;1.10;;
40533;SDS011;26233;51.894;10.192;2022-11-04T06:46:35;1.17;;;1.08;;
40533;SDS011;26233;51.894;10.192;2022-11-04T06:49:04;1.30;;;1.20;;
40533;SDS011;26233;51.894;10.192;2022-11-04T06:51:34;1.10;;;1.00;;
40533;SDS011;26233;51.894;10.192;2022-11-04T06:54:01;1.20;;;1.10;;
40533;SDS011;26233;51.894;10.192;2022-11-04T06:56:30;1.83;;;1.20;;
40533;SDS011;26233;51.894;10.192;2022-11-04T06:59:00;1.50;;;1.20;;
40533;SDS011;26233;51.894;10.192;2022-11-04T07:01:27;1.25;;;1.13;;
40533;SDS011;26233;51.894;10.192;2022-11-04T07:03:58;1.48;;;1.13;;
40533;SDS011;26233;51.894;10.192;2022-11-04T07:06:26;1.45;;;1.10;;
40533;SDS011;26233;51.894;10.192;2022-11-04T07:08:55;1.65;;;1.00;;
40533;SDS011;26233;51.894;10.192;2022-11-04T07:11:28;2.25;;;1.30;;
40533;SDS011;26233;51.894;10.192;2022-11-04T07:13:57;1.65;;;1.23;;
40533;SDS011;26233;51.894;10.192;2022-11-04T07:16:25;2.25;;;1.20;;
40533;SDS011;26233;51.894;10.192;2022-11-04T07:18:52;1.30;;;1.20;;
40533;SDS011;26233;51.894;10.192;2022-11-04T07:21:21;1.38;;;1.27;;
40533;SDS011;26233;51.894;10.192;2022-11-04T07:23:50;1.30;;;1.20;;
40533;SDS011;26233;51.894;10.192;2022-11-04T07:26:18;1.20;;;1.10;;
40533;SDS011;26233;51.894;10.192;2022-11-04T07:28:45;1.30;;;1.10;;
40533;SDS011;26233;51.894;10.192;2022-11-04T07:31:15;1.40;;;1.30;;
40533;SDS011;26233;51.894;10.192;2022-11-04T07:33:42;2.25;;;1.60;;
40533;SDS011;26233;51.894;10.192;2022-11-04T07:36:13;2.20;;;1.27;;
40533;SDS011;26233;51.894;10.192;2022-11-04T07:38:43;1.40;;;1.30;;
40533;SDS011;26233;51.894;10.192;2022-11-04T07:41:11;1.50;;;1.40;;
40533;SDS011;26233;51.894;10.192;2022-11-04T07:43:38;2.22;;;1.35;;
40533;SDS011;26233;51.894;10.192;2022-11-04T07:46:06;1.50;;;1.40;;
40533;SDS011;26233;51.894;10.192;2022-11-04T07:48:36;1.90;;;1.45;;
40533;SDS011;26233;51.894;10.192;2022-11-04T07:51:03;1.52;;;1.35;;
40533;SDS011;26233;51.894;10.192;2022-11-04T07:53:31;2.13;;;1.25;;
40533;SDS011;26233;51.894;10.192;2022-11-04T07:56:03;1.30;;;1.20;;
40533;SDS011;26233;51.894;10.192;2022-11-04T07:58:32;2.30;;;1.45;;
40533;SDS011;26233;51.894;10.192;2022-11-04T08:01:00;1.42;;;1.33;;
40533;SDS011;26233;51.894;10.192;2022-11-04T08:03:29;1.23;;;1.13;;
40533;SDS011;26233;51.894;10.192;2022-11-04T08:05:57;1.92;;;1.30;;
40533;SDS011;26233;51.894;10.192;2022-11-04T08:08:25;2.05;;;1.30;;
40533;SDS011;26233;51.894;10.192;2022-11-04T08:10:57;1.45;;;1.13;;
40533;SDS011;26233;51.894;10.192;2022-11-04T08:13:28;1.90;;;1.30;;
40533;SDS011;26233;51.894;10.192;2022-11-04T08:15:57;2.67;;;1.27;;
40533;SDS011;26233;51.894;10.192;2022-11-04T08:18:28;1.30;;;1.20;;
40533;SDS011;26233;51.894;10.192;2022-11-04T08:20:56;1.40;;;1.27;;
40533;SDS011;26233;51.894;10.192;2022-11-04T08:23:23;1.30;;;1.20;;
40533;SDS011;26233;51.894;10.192;2022-11-04T08:25:50;1.35;;;1.25;;
40533;SDS011;26233;51.894;10.192;2022-11-04T08:28:17;1.50;;;1.40;;
40533;SDS011;26233;51.894;10.192;2022-11-04T08:30:56;1.30;;;1.20;;
40533;SDS011;26233;51.894;10.192;2022-11-04T08:33:28;1.40;;;1.30;;
40533;SDS011;26233;51.894;10.192;2022-11-04T08:35:58;1.55;;;1.10;;
40533;SDS011;26233;51.894;10.192;2022-11-04T08:38:27;2.28;;;1.30;;
40533;SDS011;26233;51.894;10.192;2022-11-04T08:40:55;1.83;;;1.33;;
40533;SDS011;26233;51.894;10.192;2022-11-04T08:43:22;1.85;;;1.25;;
40533;SDS011;26233;51.894;10.192;2022-11-04T08:45:51;1.40;;;1.30;;
40533;SDS011;26233;51.894;10.192;2022-11-04T08:48:21;1.92;;;1.40;;
40533;SDS011;26233;51.894;10.192;2022-11-04T08:50:51;1.95;;;1.50;;
40533;SDS011;26233;51.894;10.192;2022-11-04T08:53:20;2.20;;;1.40;;
40533;SDS011;26233;51.894;10.192;2022-11-04T08:55:47;1.38;;;1.20;;
40533;SDS011;26233;51.894;10.192;2022-11-04T08:58:15;1.67;;;1.33;;
40533;SDS011;26233;51.894;10.192;2022-11-04T09:00:42;1.67;;;1.25;;
40533;SDS011;26233;51.894;10.192;2022-11-04T09:03:10;1.95;;;1.27;;
40533;SDS011;26233;51.894;10.192;2022-11-04T09:05:38;1.65;;;1.40;;
40533;SDS011;26233;51.894;10.192;2022-11-04T09:08:09;1.65;;;1.30;;
40533;SDS011;26233;51.894;10.192;2022-11-04T09:10:39;1.30;;;1.10;;
40533;SDS011;26233;51.894;10.192;2022-11-04T09:13:07;1.55;;;1.10;;
40533;SDS011;26233;51.894;10.192;2022-11-04T09:15:35;3.10;;;1.45;;
40533;SDS011;26233;51.894;10.192;2022-11-04T09:18:02;1.30;;;1.20;;
40533;SDS011;26233;51.894;10.192;2022-11-04T09:20:35;2.30;;;1.20;;
40533;SDS011;26233;51.894;10.192;2022-11-04T09:23:03;1.92;;;1.17;;
40533;SDS011;26233;51.894;10.192;2022-11-04T09:25:30;1.30;;;0.95;;
40533;SDS011;26233;51.894;10.192;2022-11-04T09:27:58;1.70;;;1.08;;
40533;SDS011;26233;51.894;10.192;2022-11-04T09:30:25;1.55;;;1.10;;
40533;SDS011;26233;51.894;10.192;2022-11-04T09:32:52;2.80;;;1.35;;
40533;SDS011;26233;51.894;10.192;2022-11-04T09:35:19;1.77;;;1.25;;
40533;SDS011;26233;51.894;10.192;2022-11-04T09:37:48;1.65;;;1.00;;
40533;SDS011;26233;51.894;10.192;2022-11-04T09:40:16;1.25;;;1.10;;
40533;SDS011;26233;51.894;10.192;2022-11-04T09:42:49;1.45;;;1.20;;
40533;SDS011;26233;51.894;10.192;2022-11-04T09:45:29;1.10;;;1.00;;
40533;SDS011;26233;51.894;10.192;2022-11-04T09:47:59;2.13;;;1.38;;
40533;SDS011;26233;51.894;10.192;2022-11-04T09:50:29;1.55;;;1.08;;
40533;SDS011;26233;51.894;10.192;2022-11-04T09:53:04;2.33;;;1.20;;
40533;SDS011;26233;51.894;10.192;2022-11-04T09:55:38;1.13;;;1.00;;
40533;SDS011;26233;51.894;10.192;2022-11-04T09:58:13;1.38;;;1.05;;
40533;SDS011;26233;51.894;10.192;2022-11-04T10:00:40;1.38;;;1.05;;
40533;SDS011;26233;51.894;10.192;2022-11-04T10:03:22;1.17;;;1.00;;
40533;SDS011;26233;51.894;10.192;2022-11-04T10:06:10;3.10;;;1.13;;
40533;SDS011;26233;51.894;10.192;2022-11-04T10:08:57;1.10;;;1.00;;
40533;SDS011;26233;51.894;10.192;2022-11-04T10:11:36;1.17;;;1.08;;
40533;SDS011;26233;51.894;10.192;2022-11-04T10:14:14;1.50;;;1.02;;
40533;SDS011;26233;51.894;10.192;2022-11-04T10:17:15;1.10;;;1.00;;
40533;SDS011;26233;51.894;10.192;2022-11-04T10:20:09;2.83;;;1.17;;
40533;SDS011;26233;51.894;10.192;2022-11-04T10:22:54;3.45;;;1.30;;
40533;SDS011;26233;51.894;10.192;2022-11-04T10:25:29;2.00;;;0.98;;
40533;SDS011;26233;51.894;10.192;2022-11-04T10:28:06;1.60;;;1.10;;
40533;SDS011;26233;51.894;10.192;2022-11-04T10:30:39;1.40;;;1.15;;
40533;SDS011;26233;51.894;10.192;2022-11-04T10:33:10;1.73;;;1.20;;
40533;SDS011;26233;51.894;10.192;2022-11-04T10:35:48;2.25;;;1.10;;
40533;SDS011;26233;51.894;10.192;2022-11-04T10:38:21;2.15;;;1.10;;
40533;SDS011;26233;51.894;10.192;2022-11-04T10:40:59;1.48;;;1.05;;
40533;SDS011;26233;51.894;10.192;2022-11-04T10:43:27;1.95;;;1.30;;
40533;SDS011;26233;51.894;10.192;2022-11-04T10:46:06;1.73;;;1.40;;
40533;SDS011;26233;51.894;10.192;2022-11-04T10:48:50;1.55;;;1.10;;
40533;SDS011;26233;51.894;10.192;2022-11-04T10:51:26;2.03;;;1.10;;
40533;SDS011;26233;51.894;10.192;2022-11-04T10:53:57;2.88;;;1.30;;
40533;SDS011;26233;51.894;10.192;2022-11-04T10:56:30;3.42;;;1.60;;
40533;SDS011;26233;51.894;10.192;2022-11-04T10:59:06;1.80;;;1.40;;
40533;SDS011;26233;51.894;10.192;2022-11-04T11:01:48;1.83;;;1.48;;
40533;SDS011;26233;51.894;10.192;2022-11-04T11:04:24;1.85;;;1.25;;
40533;SDS011;26233;51.894;10.192;2022-11-04T11:06:55;2.63;;;1.40;;
40533;SDS011;26233;51.894;10.192;2022-11-04T11:09:25;1.50;;;1.23;;
40533;SDS011;26233;51.894;10.192;2022-11-04T11:11:56;2.03;;;1.13;;
40533;SDS011;26233;51.894;10.192;2022-11-04T11:14:33;1.83;;;1.20;;
40533;SDS011;26233;51.894;10.192;2022-11-04T11:17:17;3.00;;;1.23;;
40533;SDS011;26233;51.894;10.192;2022-11-04T11:19:48;1.90;;;1.13;;
40533;SDS011;26233;51.894;10.192;2022-11-04T11:22:27;2.53;;;1.20;;
40533;SDS011;26233;51.894;10.192;2022-11-04T11:25:12;2.85;;;1.42;;
40533;SDS011;26233;51.894;10.192;2022-11-04T11:27:59;1.55;;;1.20;;
40533;SDS011;26233;51.894;10.192;2022-11-04T11:30:28;1.38;;;1.27;;
40533;SDS011;26233;51.894;10.192;2022-11-04T11:32:58;2.67;;;1.27;;
40533;SDS011;26233;51.894;10.192;2022-11-04T11:35:30;2.53;;;1.20;;
40533;SDS011;26233;51.894;10.192;2022-11-04T11:38:05;1.50;;;1.30;;
40533;SDS011;26233;51.894;10.192;2022-11-04T11:40:44;1.55;;;1.10;;
40533;SDS011;26233;51.894;10.192;2022-11-04T11:43:20;1.95;;;1.25;;
40533;SDS011;26233;51.894;10.192;2022-11-04T11:45:50;2.33;;;1.30;;
40533;SDS011;26233;51.894;10.192;2022-11-04T11:48:28;2.35;;;1.30;;
40533;SDS011;26233;51.894;10.192;2022-11-04T11:50:58;2.25;;;1.40;;
40533;SDS011;26233;51.894;10.192;2022-11-04T11:53:26;2.55;;;1.52;;
40533;SDS011;26233;51.894;10.192;2022-11-04T11:55:59;1.60;;;1.40;;
40533;SDS011;26233;51.894;10.192;2022-11-04T11:58:48;2.08;;;1.40;;
40533;SDS011;26233;51.894;10.192;2022-11-04T12:01:24;2.83;;;1.20;;
40533;SDS011;26233;51.894;10.192;2022-11-04T12:03:57;1.40;;;1.20;;
40533;SDS011;26233;51.894;10.192;2022-11-04T12:06:28;2.15;;;1.20;;
40533;SDS011;26233;51.894;10.192;2022-11-04T12:09:13;2.30;;;1.98;;
40533;SDS011;26233;51.894;10.192;2022-11-04T12:11:59;3.67;;;2.00;;
40533;SDS011;26233;51.894;10.192;2022-11-04T12:14:45;2.35;;;1.60;;
40533;SDS011;26233;51.894;10.192;2022-11-04T12:17:34;1.80;;;1.50;;
40533;SDS011;26233;51.894;10.192;2022-11-04T12:20:19;2.15;;;1.40;;
40533;SDS011;26233;51.894;10.192;2022-11-04T12:22:58;4.63;;;1.50;;
40533;SDS011;26233;51.894;10.192;2022-11-04T12:25:38;1.30;;;1.20;;
40533;SDS011;26233;51.894;10.192;2022-11-04T12:28:14;1.45;;;1.10;;
40533;SDS011;26233;51.894;10.192;2022-11-04T12:30:57;2.28;;;1.30;;
40533;SDS011;26233;51.894;10.192;2022-11-04T12:33:38;2.30;;;1.45;;
40533;SDS011;26233;51.894;10.192;2022-11-04T12:36:18;2.60;;;1.42;;
40533;SDS011;26233;51.894;10.192;2022-11-04T12:39:05;1.17;;;1.00;;
40533;SDS011;26233;51.894;10.192;2022-11-04T12:41:56;2.20;;;1.55;;
40533;SDS011;26233;51.894;10.192;2022-11-04T12:44:38;2.65;;;1.42;;
40533;SDS011;26233;51.894;10.192;2022-11-04T12:47:17;1.70;;;1.23;;
40533;SDS011;26233;51.894;10.192;2022-11-04T12:50:02;1.30;;;1.20;;
40533;SDS011;26233;51.894;10.192;2022-11-04T12:52:56;1.73;;;1.38;;
40533;SDS011;26233;51.894;10.192;2022-11-04T12:55:43;1.73;;;1.23;;
40533;SDS011;26233;51.894;10.192;2022-11-04T12:58:21;2.10;;;1.48;;
40533;SDS011;26233;51.894;10.192;2022-11-04T13:01:03;1.92;;;1.30;;
40533;SDS011;26233;51.894;10.192;2022-11-04T13:03:39;3.30;;;1.50;;
40533;SDS011;26233;51.894;10.192;2022-11-04T13:06:17;2.10;;;1.50;;
40533;SDS011;26233;51.894;10.192;2022-11-04T13:08:50;3.70;;;1.42;;
40533;SDS011;26233;51.894;10.192;2022-11-04T13:11:23;1.75;;;1.15;;
40533;SDS011;26233;51.894;10.192;2022-11-04T13:13:59;2.53;;;1.10;;
40533;SDS011;26233;51.894;10.192;2022-11-04T13:16:32;2.30;;;1.25;;
40533;SDS011;26233;51.894;10.192;2022-11-04T13:19:05;1.98;;;1.30;;
40533;SDS011;26233;51.894;10.192;2022-11-04T13:21:45;1.60;;;1.30;;
40533;SDS011;26233;51.894;10.192;2022-11-04T13:24:14;2.22;;;1.20;;
40533;SDS011;26233;51.894;10.192;2022-11-04T13:26:47;1.80;;;1.42;;
40533;SDS011;26233;51.894;10.192;2022-11-04T13:29:17;2.05;;;1.27;;
40533;SDS011;26233;51.894;10.192;2022-11-04T13:31:50;2.78;;;1.60;;
40533;SDS011;26233;51.894;10.192;2022-11-04T13:34:27;2.30;;;1.40;;
40533;SDS011;26233;51.894;10.192;2022-11-04T13:37:16;3.22;;;1.48;;
40533;SDS011;26233;51.894;10.192;2022-11-04T13:39:50;1.70;;;1.27;;
40533;SDS011;26233;51.894;10.192;2022-11-04T13:42:34;2.83;;;1.58;;
40533;SDS011;26233;51.894;10.192;2022-11-04T13:45:45;2.28;;;1.35;;
40533;SDS011;26233;51.894;10.192;2022-11-04T13:48:20;1.48;;;1.15;;
40533;SDS011;26233;51.894;10.192;2022-11-04T13:50:59;2.03;;;1.20;;
40533;SDS011;26233;51.894;10.192;2022-11-04T13:53:41;2.13;;;1.25;;
40533;SDS011;26233;51.894;10.192;2022-11-04T13:56:24;1.88;;;1.10;;
40533;SDS011;26233;51.894;10.192;2022-11-04T13:58:55;2.15;;;1.30;;
40533;SDS011;26233;51.894;10.192;2022-11-04T14:01:25;1.95;;;1.20;;
40533;SDS011;26233;51.894;10.192;2022-11-04T14:04:00;2.95;;;1.10;;
40533;SDS011;26233;51.894;10.192;2022-11-04T14:06:55;3.38;;;1.70;;
40533;SDS011;26233;51.894;10.192;2022-11-04T14:09:35;1.73;;;1.25;;
40533;SDS011;26233;51.894;10.192;2022-11-04T14:12:24;1.52;;;1.23;;
40533;SDS011;26233;51.894;10.192;2022-11-04T14:18:26;2.40;;;1.30;;
40533;SDS011;26233;51.894;10.192;2022-11-04T14:21:03;2.30;;;1.40;;
40533;SDS011;26233;51.894;10.192;2022-11-04T14:23:37;1.92;;;1.30;;
40533;SDS011;26233;51.894;10.192;2022-11-04T14:26:21;2.20;;;1.30;;
40533;SDS011;26233;51.894;10.192;2022-11-04T14:28:58;1.83;;;1.30;;
40533;SDS011;26233;51.894;10.192;2022-11-04T14:31:33;1.73;;;1.20;;
40533;SDS011;26233;51.894;10.192;2022-11-04T14:34:02;3.28;;;1.65;;
40533;SDS011;26233;51.894;10.192;2022-11-04T14:36:31;3.30;;;1.65;;
40533;SDS011;26233;51.894;10.192;2022-11-04T14:39:06;1.95;;;1.33;;
40533;SDS011;26233;51.894;10.192;2022-11-04T14:41:52;1.63;;;1.38;;
40533;SDS011;26233;51.894;10.192;2022-11-04T14:44:33;2.72;;;1.45;;
40533;SDS011;26233;51.894;10.192;2022-11-04T14:47:12;2.13;;;1.08;;
40533;SDS011;26233;51.894;10.192;2022-11-04T14:49:44;2.05;;;1.40;;
40533;SDS011;26233;51.894;10.192;2022-11-04T14:52:16;3.42;;;1.77;;
40533;SDS011;26233;51.894;10.192;2022-11-04T14:54:53;2.00;;;1.23;;
40533;SDS011;26233;51.894;10.192;2022-11-04T14:57:23;2.72;;;1.80;;
40533;SDS011;26233;51.894;10.192;2022-11-04T14:59:50;1.85;;;1.38;;
40533;SDS011;26233;51.894;10.192;2022-11-04T15:02:18;2.25;;;1.40;;
40533;SDS011;26233;51.894;10.192;2022-11-04T15:04:49;2.25;;;1.60;;
40533;SDS011;26233;51.894;10.192;2022-11-04T15:07:23;2.58;;;1.65;;
40533;SDS011;26233;51.894;10.192;2022-11-04T15:09:59;3.78;;;1.70;;
40533;SDS011;26233;51.894;10.192;2022-11-04T15:12:29;2.35;;;1.60;;
40533;SDS011;26233;51.894;10.192;2022-11-04T15:15:24;2.13;;;1.40;;
40533;SDS011;26233;51.894;10.192;2022-11-04T15:18:00;2.60;;;1.50;;